Time;durP1;ratioP1;P1;durP2;ratioP2;P2;SDS_P1;SDS_P2;PMS_P1;PMS_P2;Temp;Humidity;BMP_temperature;BMP_pressure;BME280_temperature;BME280_humidity;BME280_pressure;Samples;Min_cycle;Max_cycle;Signal;HPM_P1;HPM_P2
2022/03/26 00:00:34;;;;;;;1999.90;999.90;;;14.20;39.90;;;;;;4987305;28;20099;-86
2022/03/26 00:03:00;;;;;;;1999.90;999.90;;;14.20;39.90;;;;;;4956671;28;20483;-86
2022/03/26 00:05:26;;;;;;;1999.90;999.90;;;14.20;40.00;;;;;;4970860;28;20475;-86
2022/03/26 00:07:52;;;;;;;1999.90;999.90;;;14.10;40.00;;;;;;4971548;28;20041;-86
2022/03/26 00:10:18;;;;;;;1999.90;999.90;;;14.10;40.00;;;;;;4971051;28;20045;-86
2022/03/26 00:12:44;;;;;;;1999.90;999.90;;;14.00;40.10;;;;;;4973791;28;20030;-86
2022/03/26 00:15:12;;;;;;;1999.90;999.90;;;14.00;40.10;;;;;;4971374;28;20038;-87
2022/03/26 00:17:38;;;;;;;1999.90;999.90;;;14.00;40.20;;;;;;4972762;28;20030;-86
2022/03/26 00:20:05;;;;;;;1999.90;999.90;;;13.90;40.20;;;;;;4961392;28;20056;-86
2022/03/26 00:22:31;;;;;;;1999.90;999.90;;;13.90;40.30;;;;;;4955267;28;20620;-86
2022/03/26 00:24:58;;;;;;;1999.90;999.90;;;13.80;40.30;;;;;;4971280;28;20042;-86
2022/03/26 00:27:24;;;;;;;1999.90;999.90;;;13.80;40.40;;;;;;4957087;28;20042;-86
2022/03/26 00:29:50;;;;;;;1999.90;999.90;;;13.80;40.50;;;;;;4954207;28;20054;-86
2022/03/26 00:32:16;;;;;;;1999.90;999.90;;;13.70;40.50;;;;;;4953436;28;20038;-86
2022/03/26 00:34:42;;;;;;;1999.90;999.90;;;13.60;40.50;;;;;;4958839;28;20502;-86
2022/03/26 00:37:08;;;;;;;1999.90;999.90;;;13.60;40.70;;;;;;4971392;28;20046;-86
2022/03/26 00:39:36;;;;;;;1999.90;999.90;;;13.50;40.80;;;;;;4972059;28;20047;-86
2022/03/26 00:42:02;;;;;;;1999.90;999.90;;;13.40;40.90;;;;;;4970193;28;20031;-86
2022/03/26 00:44:28;;;;;;;1999.90;999.90;;;13.40;41.00;;;;;;4973985;28;20050;-86
2022/03/26 00:46:54;;;;;;;1999.90;999.90;;;13.30;41.10;;;;;;4969270;28;20034;-86
2022/03/26 00:49:20;;;;;;;1999.90;999.90;;;13.20;41.80;;;;;;4972044;28;20395;-86
2022/03/26 00:51:46;;;;;;;1999.90;999.90;;;13.20;41.30;;;;;;4953811;28;20054;-86
2022/03/26 00:54:12;;;;;;;1999.90;999.90;;;13.10;41.40;;;;;;4968361;28;20046;-86
2022/03/26 00:56:39;;;;;;;1999.90;999.90;;;13.10;41.50;;;;;;4955467;28;20051;-86
2022/03/26 00:59:06;;;;;;;1999.90;999.90;;;13.00;41.70;;;;;;4969257;28;20511;-86
2022/03/26 01:01:32;;;;;;;1999.90;999.90;;;12.90;41.80;;;;;;4962416;28;20062;-86
2022/03/26 01:03:59;;;;;;;1999.90;999.90;;;12.90;41.90;;;;;;4971592;28;20047;-86
2022/03/26 01:06:25;;;;;;;1999.90;999.90;;;12.90;41.90;;;;;;4956730;28;20075;-86
2022/03/26 01:08:51;;;;;;;1999.90;999.90;;;12.90;41.90;;;;;;4937295;28;20046;-86
2022/03/26 01:11:17;;;;;;;1999.90;999.90;;;12.80;41.90;;;;;;4970092;28;20376;-86
2022/03/26 01:13:44;;;;;;;1999.90;999.90;;;12.80;41.80;;;;;;4970960;28;20041;-86
2022/03/26 01:16:12;;;;;;;1999.90;999.90;;;12.80;41.90;;;;;;4970446;28;20031;-86
2022/03/26 01:18:39;;;;;;;1999.90;999.90;;;12.80;41.90;;;;;;4972425;28;20503;-86
2022/03/26 01:21:06;;;;;;;1999.90;999.90;;;12.80;41.90;;;;;;4970733;28;20070;-86
2022/03/26 01:23:32;;;;;;;1999.90;999.90;;;12.80;42.00;;;;;;4952803;28;20373;-86
2022/03/26 01:25:58;;;;;;;1999.90;999.90;;;12.70;42.00;;;;;;4955198;28;20500;-86
2022/03/26 01:28:26;;;;;;;1999.90;999.90;;;12.70;42.10;;;;;;4970048;28;20135;-86
2022/03/26 01:30:53;;;;;;;1999.90;999.90;;;12.70;42.10;;;;;;4971059;28;20046;-86
2022/03/26 01:33:19;;;;;;;1999.90;999.90;;;12.70;42.20;;;;;;4955000;28;20023;-86
2022/03/26 01:35:45;;;;;;;1999.90;999.90;;;12.60;42.20;;;;;;4969537;28;20601;-85
2022/03/26 01:38:11;;;;;;;1999.90;999.90;;;12.60;42.20;;;;;;4952802;28;20442;-86
2022/03/26 01:40:37;;;;;;;1999.90;999.90;;;12.60;42.20;;;;;;4969386;28;20035;-86
2022/03/26 01:43:04;;;;;;;1999.90;999.90;;;12.60;42.30;;;;;;4970367;28;20102;-86
2022/03/26 01:45:30;;;;;;;1999.90;999.90;;;12.60;42.30;;;;;;4970290;28;20035;-86
2022/03/26 01:47:56;;;;;;;1999.90;999.90;;;12.60;42.40;;;;;;4953985;28;20029;-86
2022/03/26 01:50:24;;;;;;;1999.90;999.90;;;12.60;42.40;;;;;;4970629;28;20027;-85
2022/03/26 01:52:50;;;;;;;1999.90;999.90;;;12.60;42.40;;;;;;4969494;28;20050;-86
2022/03/26 01:55:17;;;;;;;1999.90;999.90;;;12.60;42.50;;;;;;4970764;28;20039;-85
2022/03/26 01:57:43;;;;;;;1999.90;999.90;;;12.50;42.50;;;;;;4971065;28;20037;-86
2022/03/26 02:00:11;;;;;;;1999.90;999.90;;;12.50;42.50;;;;;;4940198;28;20058;-86
2022/03/26 02:02:43;;;;;;;1999.90;999.90;;;12.50;42.60;;;;;;4969626;28;20034;-86
2022/03/26 02:05:13;;;;;;;1999.90;999.90;;;12.40;42.70;;;;;;4969406;28;20054;-86
2022/03/26 02:07:39;;;;;;;1999.90;999.90;;;12.40;42.80;;;;;;4969687;28;20030;-86
2022/03/26 02:10:09;;;;;;;1999.90;999.90;;;12.30;42.90;;;;;;4969039;28;20349;-86
2022/03/26 02:12:36;;;;;;;1999.90;999.90;;;12.30;43.00;;;;;;4970804;28;20035;-85
2022/03/26 02:15:02;;;;;;;1999.90;999.90;;;12.20;43.10;;;;;;4954220;28;20395;-85
2022/03/26 02:17:28;;;;;;;1999.90;999.90;;;12.10;43.20;;;;;;4954991;28;20038;-86
2022/03/26 02:19:58;;;;;;;1999.90;999.90;;;12.10;43.30;;;;;;4949301;28;20059;-86
2022/03/26 02:22:25;;;;;;;1999.90;999.90;;;12.00;43.30;;;;;;4965390;28;20035;-85
2022/03/26 02:24:51;;;;;;;1999.90;999.90;;;11.90;43.40;;;;;;4971456;28;20030;-86
2022/03/26 02:27:17;;;;;;;1999.90;999.90;;;11.90;43.50;;;;;;4969660;28;20486;-86
2022/03/26 02:29:43;;;;;;;1999.90;999.90;;;11.90;43.50;;;;;;4968988;28;20035;-85
2022/03/26 02:32:10;;;;;;;1999.90;999.90;;;11.80;43.50;;;;;;4953791;28;20484;-86
2022/03/26 02:34:37;;;;;;;1999.90;999.90;;;11.80;43.60;;;;;;4966866;28;20034;-86
2022/03/26 02:37:04;;;;;;;1999.90;999.90;;;11.80;43.70;;;;;;4968830;28;20031;-86
2022/03/26 02:39:30;;;;;;;1999.90;999.90;;;11.80;43.70;;;;;;4967828;28;20480;-86
2022/03/26 02:41:56;;;;;;;1999.90;999.90;;;11.80;43.70;;;;;;4954291;28;20031;-86
2022/03/26 02:44:22;;;;;;;1999.90;999.90;;;11.80;43.80;;;;;;4970425;28;20027;-86
2022/03/26 02:46:48;;;;;;;1999.90;999.90;;;11.70;43.80;;;;;;4970264;28;20039;-86
2022/03/26 02:49:15;;;;;;;1999.90;999.90;;;11.70;43.80;;;;;;4969191;28;20042;-86
2022/03/26 02:51:41;;;;;;;1999.90;999.90;;;11.70;43.90;;;;;;4971592;28;20054;-86
2022/03/26 02:54:18;;;;;;;1999.90;999.90;;;11.70;44.00;;;;;;4957214;28;20039;-86
2022/03/26 02:56:48;;;;;;;1999.90;999.90;;;11.70;44.00;;;;;;4969153;28;20027;-85
2022/03/26 02:59:14;;;;;;;1999.90;999.90;;;11.70;44.10;;;;;;4959317;28;20461;-86
2022/03/26 03:01:41;;;;;;;1999.90;999.90;;;11.60;44.10;;;;;;4967149;28;20047;-86
2022/03/26 03:04:07;;;;;;;1999.90;999.90;;;11.60;44.30;;;;;;4951639;28;20515;-86
2022/03/26 03:06:34;;;;;;;1999.90;999.90;;;11.50;44.30;;;;;;4968049;28;20043;-86
2022/03/26 03:09:04;;;;;;;1999.90;999.90;;;11.50;44.50;;;;;;4950162;28;20039;-86
2022/03/26 03:11:30;;;;;;;1999.90;999.90;;;11.50;44.60;;;;;;4936046;28;20384;-86
2022/03/26 03:13:57;;;;;;;1999.90;999.90;;;11.40;44.70;;;;;;4948712;28;20034;-86
2022/03/26 03:16:23;;;;;;;1999.90;999.90;;;11.40;44.70;;;;;;4966455;28;20367;-86
2022/03/26 03:18:50;;;;;;;1999.90;999.90;;;11.40;44.90;;;;;;4979157;28;20035;-86
2022/03/26 03:21:16;;;;;;;1999.90;999.90;;;11.30;45.00;;;;;;4965866;28;20250;-86
2022/03/26 03:23:42;;;;;;;1999.90;999.90;;;11.30;45.10;;;;;;4965301;28;20042;-86
2022/03/26 03:26:08;;;;;;;1999.90;999.90;;;11.20;45.20;;;;;;4961481;28;20534;-87
2022/03/26 03:28:35;;;;;;;1999.90;999.90;;;11.20;45.30;;;;;;4965359;28;20027;-86
2022/03/26 03:31:01;;;;;;;1999.90;999.90;;;11.10;45.40;;;;;;4961663;28;20041;-86
2022/03/26 03:33:27;;;;;;;1999.90;999.90;;;11.10;45.50;;;;;;4955617;28;20050;-86
2022/03/26 03:35:53;;;;;;;1999.90;999.90;;;11.00;45.60;;;;;;4961624;28;20023;-86
2022/03/26 03:38:19;;;;;;;1999.90;999.90;;;11.00;45.60;;;;;;4967995;28;20038;-86
2022/03/26 03:40:46;;;;;;;1999.90;999.90;;;11.00;45.80;;;;;;4970680;28;20062;-85
2022/03/26 03:43:12;;;;;;;1999.90;999.90;;;11.00;45.80;;;;;;4972409;28;20035;-86
2022/03/26 03:45:38;;;;;;;1999.90;999.90;;;11.00;45.80;;;;;;4973300;28;20031;-85
2022/03/26 03:48:04;;;;;;;1999.90;999.90;;;11.00;45.90;;;;;;4956208;28;20050;-87
2022/03/26 03:50:30;;;;;;;1999.90;999.90;;;10.90;45.80;;;;;;4971715;28;20027;-87
2022/03/26 03:52:56;;;;;;;1999.90;999.90;;;11.00;45.80;;;;;;4972694;28;20058;-87
2022/03/26 03:55:24;;;;;;;1999.90;999.90;;;10.90;45.70;;;;;;4973214;28;20046;-86
2022/03/26 03:57:50;;;;;;;1999.90;999.90;;;11.00;45.80;;;;;;4974676;28;20027;-87
2022/03/26 04:00:16;;;;;;;1999.90;999.90;;;11.00;45.80;;;;;;4972744;28;20074;-86
2022/03/26 04:02:42;;;;;;;1999.90;999.90;;;11.00;46.10;;;;;;4973923;28;20034;-86
2022/03/26 04:05:13;;;;;;;1999.90;999.90;;;11.00;45.80;;;;;;4955977;28;20038;-86
2022/03/26 04:07:40;;;;;;;1999.90;999.90;;;11.00;45.80;;;;;;4972155;28;20023;-85
2022/03/26 04:10:07;;;;;;;1999.90;999.90;;;11.00;45.90;;;;;;4974460;28;20038;-84
2022/03/26 04:12:34;;;;;;;1999.90;999.90;;;10.90;45.80;;;;;;4971696;28;20050;-84
2022/03/26 04:15:00;;;;;;;1999.90;999.90;;;10.90;45.90;;;;;;4955122;28;20041;-85
2022/03/26 04:17:26;;;;;;;1999.90;999.90;;;11.00;46.00;;;;;;4971378;28;20043;-85
2022/03/26 04:19:53;;;;;;;1999.90;999.90;;;11.00;46.00;;;;;;4972127;28;20027;-84
2022/03/26 04:22:19;;;;;;;1999.90;999.90;;;11.00;46.00;;;;;;4971683;28;20035;-84
2022/03/26 04:24:45;;;;;;;1999.90;999.90;;;10.90;46.00;;;;;;4973212;28;20229;-84
2022/03/26 04:27:12;;;;;;;1999.90;999.90;;;10.90;46.70;;;;;;4970611;28;20042;-84
2022/03/26 04:29:38;;;;;;;1999.90;999.90;;;10.90;46.10;;;;;;4971357;28;20039;-84
2022/03/26 04:32:04;;;;;;;1999.90;999.90;;;10.90;46.20;;;;;;4971327;28;20042;-84
2022/03/26 04:34:30;;;;;;;1999.90;999.90;;;10.80;46.30;;;;;;4962363;28;20461;-85
2022/03/26 04:36:57;;;;;;;1999.90;999.90;;;10.80;46.40;;;;;;4972110;28;20038;-84
2022/03/26 04:39:23;;;;;;;1999.90;999.90;;;10.80;46.50;;;;;;4955627;28;20495;-83
2022/03/26 04:41:49;;;;;;;1999.90;999.90;;;10.70;46.50;;;;;;4971762;28;20091;-80
2022/03/26 04:44:15;;;;;;;1999.90;999.90;;;10.70;46.50;;;;;;4955267;28;20507;-80
2022/03/26 04:46:41;;;;;;;1999.90;999.90;;;10.60;46.60;;;;;;4971080;28;20039;-80
2022/03/26 04:49:07;;;;;;;1999.90;999.90;;;10.60;46.70;;;;;;4956147;28;20065;-79
2022/03/26 04:51:33;;;;;;;1999.90;999.90;;;10.60;46.90;;;;;;4957077;28;20062;-84
2022/03/26 04:54:00;;;;;;;1999.90;999.90;;;10.50;46.90;;;;;;4939729;28;20053;-85
2022/03/26 04:56:26;;;;;;;1999.90;999.90;;;10.50;47.00;;;;;;4971778;28;20054;-87
2022/03/26 04:58:54;;;;;;;1999.90;999.90;;;10.40;47.00;;;;;;4971765;28;20034;-87
2022/03/26 05:01:22;;;;;;;1999.90;999.90;;;10.40;47.00;;;;;;4970668;28;20047;-87
2022/03/26 05:03:49;;;;;;;1999.90;999.90;;;10.40;47.10;;;;;;4957463;28;20038;-86
2022/03/26 05:06:15;;;;;;;1999.90;999.90;;;10.40;47.10;;;;;;4970577;28;20035;-86
2022/03/26 05:08:41;;;;;;;1999.90;999.90;;;10.40;47.20;;;;;;4971021;28;20499;-86
2022/03/26 05:11:08;;;;;;;1999.90;999.90;;;10.30;47.80;;;;;;4952883;28;20047;-85
2022/03/26 05:13:34;;;;;;;1999.90;999.90;;;10.30;47.30;;;;;;4971686;28;20039;-84
2022/03/26 05:16:02;;;;;;;1999.90;999.90;;;10.20;47.40;;;;;;4971478;28;20504;-83
2022/03/26 05:18:28;;;;;;;1999.90;999.90;;;10.20;47.50;;;;;;4958319;28;20054;-82
2022/03/26 05:20:56;;;;;;;1999.90;999.90;;;10.20;47.60;;;;;;4973010;28;20038;-82
2022/03/26 05:23:24;;;;;;;1999.90;999.90;;;10.10;47.60;;;;;;4971960;28;20015;-83
2022/03/26 05:25:50;;;;;;;1999.90;999.90;;;10.10;47.80;;;;;;4970596;28;20030;-83
2022/03/26 05:28:16;;;;;;;1999.90;999.90;;;10.10;47.90;;;;;;4969925;28;20483;-82
2022/03/26 05:30:42;;;;;;;1999.90;999.90;;;10.00;47.90;;;;;;4956556;28;20053;-84
2022/03/26 05:33:08;;;;;;;1999.90;999.90;;;10.00;48.00;;;;;;4968194;28;20054;-84
2022/03/26 05:35:34;;;;;;;1999.90;999.90;;;10.00;48.10;;;;;;4970825;28;20031;-84
2022/03/26 05:38:01;;;;;;;1999.90;999.90;;;10.00;48.20;;;;;;4953028;28;20038;-84
2022/03/26 05:40:27;;;;;;;1999.90;999.90;;;9.90;48.40;;;;;;4970973;28;20046;-84
2022/03/26 05:42:53;;;;;;;1999.90;999.90;;;9.90;48.70;;;;;;4956345;28;20035;-84
2022/03/26 05:45:19;;;;;;;1999.90;999.90;;;9.80;48.80;;;;;;4970268;28;20027;-84
2022/03/26 05:47:48;;;;;;;1999.90;999.90;;;9.80;48.90;;;;;;4970929;28;20038;-84
2022/03/26 05:50:14;;;;;;;1999.90;999.90;;;9.80;49.00;;;;;;4971626;28;20038;-85
2022/03/26 05:52:40;;;;;;;1999.90;999.90;;;9.80;49.20;;;;;;4970428;28;20526;-85
2022/03/26 05:55:07;;;;;;;1999.90;999.90;;;9.70;49.10;;;;;;4938913;28;20035;-83
2022/03/26 05:57:33;;;;;;;1999.90;999.90;;;9.70;49.20;;;;;;4987038;28;20035;-85
2022/03/26 06:00:00;;;;;;;1999.90;999.90;;;9.70;49.30;;;;;;4953365;28;20369;-87
2022/03/26 06:02:27;;;;;;;1999.90;999.90;;;9.70;49.30;;;;;;4967791;28;20039;-87
2022/03/26 06:04:53;;;;;;;1999.90;999.90;;;9.70;49.40;;;;;;4953782;28;20033;-87
2022/03/26 06:07:19;;;;;;;1999.90;999.90;;;9.70;49.50;;;;;;4969687;28;20030;-86
2022/03/26 06:09:45;;;;;;;1999.90;999.90;;;9.70;49.70;;;;;;4973301;28;20030;-87
2022/03/26 06:12:11;;;;;;;1999.90;999.90;;;9.70;49.80;;;;;;4968331;28;20033;-87
2022/03/26 06:14:37;;;;;;;1999.90;999.90;;;9.60;49.70;;;;;;4971826;28;20404;-87
2022/03/26 06:17:03;;;;;;;1999.90;999.90;;;9.60;49.60;;;;;;4969920;28;20030;-87
2022/03/26 06:19:30;;;;;;;1999.90;999.90;;;9.70;49.60;;;;;;4970600;28;20395;-87
2022/03/26 06:21:56;;;;;;;1999.90;999.90;;;9.70;49.70;;;;;;4940269;28;20054;-87
2022/03/26 06:24:22;;;;;;;1999.90;999.90;;;9.60;49.80;;;;;;4952805;28;20043;-87
2022/03/26 06:26:48;;;;;;;1999.90;999.90;;;9.70;49.80;;;;;;4965408;28;20399;-86
2022/03/26 06:29:15;;;;;;;1999.90;999.90;;;9.60;49.80;;;;;;4954885;28;20062;-86
2022/03/26 06:31:41;;;;;;;1999.90;999.90;;;9.60;50.10;;;;;;4969608;28;20039;-87
2022/03/26 06:34:07;;;;;;;1999.90;999.90;;;9.60;50.10;;;;;;4938384;28;20050;-85
2022/03/26 06:36:34;;;;;;;1999.90;999.90;;;9.60;50.10;;;;;;4986111;28;20038;-83
2022/03/26 06:39:05;;;;;;;1999.90;999.90;;;9.70;50.30;;;;;;4970296;28;20035;-85
2022/03/26 06:41:31;;;;;;;1999.90;999.90;;;9.80;50.10;;;;;;4969328;28;20050;-83
2022/03/26 06:43:57;;;;;;;1999.90;999.90;;;10.00;49.70;;;;;;4968629;28;20035;-85
2022/03/26 06:46:23;;;;;;;1999.90;999.90;;;10.20;49.30;;;;;;4952631;28;20420;-86
2022/03/26 06:48:49;;;;;;;1999.90;999.90;;;10.50;48.90;;;;;;4973128;28;20031;-85
2022/03/26 06:51:15;;;;;;;1999.90;999.90;;;10.70;48.70;;;;;;4936875;28;20043;-85
2022/03/26 06:53:41;;;;;;;1999.90;999.90;;;10.90;48.40;;;;;;4969536;28;20384;-85
2022/03/26 06:56:08;;;;;;;1999.90;999.90;;;11.10;48.30;;;;;;4968467;28;20488;-83
2022/03/26 06:58:34;;;;;;;1999.90;999.90;;;11.20;48.30;;;;;;4953244;28;20046;-83
2022/03/26 07:01:01;;;;;;;1999.90;999.90;;;11.30;48.30;;;;;;4971739;28;20050;-85
2022/03/26 07:03:27;;;;;;;1999.90;999.90;;;11.40;48.20;;;;;;4970197;28;20038;-87
2022/03/26 07:05:54;;;;;;;1999.90;999.90;;;11.60;48.10;;;;;;4969874;28;20526;-86
2022/03/26 07:08:20;;;;;;;1999.90;999.90;;;11.70;48.00;;;;;;4968204;28;20027;-83
2022/03/26 07:10:46;;;;;;;1999.90;999.90;;;11.80;48.10;;;;;;4969245;28;20480;-86
2022/03/26 07:13:13;;;;;;;1999.90;999.90;;;11.90;47.90;;;;;;4970283;28;20039;-87
2022/03/26 07:15:40;;;;;;;1999.90;999.90;;;12.00;47.80;;;;;;4968155;28;20482;-87
2022/03/26 07:18:06;;;;;;;1999.90;999.90;;;12.20;47.70;;;;;;4974152;28;20046;-87
2022/03/26 07:20:32;;;;;;;1999.90;999.90;;;12.30;47.70;;;;;;4973514;28;20387;-87
2022/03/26 07:22:58;;;;;;;1999.90;999.90;;;12.30;47.70;;;;;;4973420;28;20054;-87
2022/03/26 07:25:25;;;;;;;1999.90;999.90;;;12.40;47.70;;;;;;4973440;28;20038;-85
2022/03/26 07:27:51;;;;;;;1999.90;999.90;;;12.50;47.70;;;;;;4975451;28;20038;-83
2022/03/26 07:30:17;;;;;;;1999.90;999.90;;;12.50;47.70;;;;;;4971294;28;20030;-84
2022/03/26 07:32:43;;;;;;;1999.90;999.90;;;12.60;47.70;;;;;;4973438;28;20031;-82
2022/03/26 07:35:09;;;;;;;1999.90;999.90;;;12.70;47.70;;;;;;4972719;28;20038;-82
2022/03/26 07:37:35;;;;;;;1999.90;999.90;;;12.80;47.50;;;;;;4974108;28;20031;-82
2022/03/26 07:40:02;;;;;;;1999.90;999.90;;;12.90;47.40;;;;;;4974069;28;20035;-83
2022/03/26 07:42:28;;;;;;;1999.90;999.90;;;13.10;47.20;;;;;;4973495;28;20053;-87
2022/03/26 07:44:54;;;;;;;1999.90;999.90;;;13.20;47.10;;;;;;4953446;28;20404;-84
2022/03/26 07:47:20;;;;;;;1999.90;999.90;;;13.30;47.00;;;;;;4971457;28;20045;-83
2022/03/26 07:49:46;;;;;;;1999.90;999.90;;;13.30;47.00;;;;;;4973281;28;20043;-76
2022/03/26 07:52:12;;;;;;;1999.90;999.90;;;13.40;47.10;;;;;;4971931;28;20061;-83
2022/03/26 07:54:38;;;;;;;1999.90;999.90;;;13.50;47.10;;;;;;4974156;28;20034;-83
2022/03/26 07:57:05;;;;;;;1999.90;999.90;;;13.60;47.00;;;;;;4972384;28;20039;-84
2022/03/26 07:59:31;;;;;;;1999.90;999.90;;;13.60;46.90;;;;;;4971933;28;20045;-83
2022/03/26 08:01:57;;;;;;;1999.90;999.90;;;13.70;46.90;;;;;;4972062;28;20050;-82
2022/03/26 08:04:23;;;;;;;1999.90;999.90;;;13.80;46.80;;;;;;4973082;28;20507;-82
2022/03/26 08:06:49;;;;;;;1999.90;999.90;;;13.90;46.80;;;;;;4974677;28;20038;-85
2022/03/26 08:09:15;;;;;;;1999.90;999.90;;;14.00;46.70;;;;;;4956844;28;20396;-84
2022/03/26 08:11:44;;;;;;;1999.90;999.90;;;14.10;46.60;;;;;;4972369;28;20050;-84
2022/03/26 08:14:10;;;;;;;1999.90;999.90;;;14.20;46.40;;;;;;4972156;28;20034;-84
2022/03/26 08:16:36;;;;;;;1999.90;999.90;;;14.30;46.40;;;;;;4972008;28;20039;-84
2022/03/26 08:19:02;;;;;;;1999.90;999.90;;;14.50;46.30;;;;;;4974702;28;20035;-85
2022/03/26 08:21:29;;;;;;;1999.90;999.90;;;14.70;45.90;;;;;;4974230;28;20046;-85
2022/03/26 08:23:56;;;;;;;1999.90;999.90;;;15.00;45.60;;;;;;4971736;28;20038;-85
2022/03/26 08:26:23;;;;;;;1999.90;999.90;;;15.10;45.60;;;;;;4971327;28;20034;-85
2022/03/26 08:28:49;;;;;;;1999.90;999.90;;;15.20;45.50;;;;;;4972369;28;20046;-85
2022/03/26 08:31:17;;;;;;;1999.90;999.90;;;15.30;45.30;;;;;;4971517;28;20038;-76
2022/03/26 08:33:44;;;;;;;1999.90;999.90;;;15.30;45.20;;;;;;4974919;28;20030;-80
2022/03/26 08:36:11;;;;;;;1999.90;999.90;;;15.40;45.30;;;;;;4954708;28;20061;-82
2022/03/26 08:38:37;;;;;;;1999.90;999.90;;;15.40;45.30;;;;;;4970029;28;20033;-81
2022/03/26 08:41:04;;;;;;;1999.90;999.90;;;15.50;45.20;;;;;;4971665;28;20393;-82
2022/03/26 08:43:30;;;;;;;1999.90;999.90;;;15.60;45.00;;;;;;4971598;28;20049;-81
2022/03/26 08:45:57;;;;;;;1999.90;999.90;;;15.60;44.90;;;;;;4972258;28;20498;-81
2022/03/26 08:48:23;;;;;;;1999.90;999.90;;;15.70;44.80;;;;;;4971852;28;20464;-81
2022/03/26 08:50:49;;;;;;;1999.90;999.90;;;15.90;44.70;;;;;;4972589;28;20031;-80
2022/03/26 08:53:15;;;;;;;1999.90;999.90;;;16.00;44.60;;;;;;4969356;28;20480;-80
2022/03/26 08:55:41;;;;;;;1999.90;999.90;;;16.10;44.50;;;;;;4971539;28;20035;-80
2022/03/26 08:58:07;;;;;;;1999.90;999.90;;;16.20;44.40;;;;;;4973375;28;20043;-75
2022/03/26 09:00:34;;;;;;;1999.90;999.90;;;16.30;44.30;;;;;;4972548;28;20407;-77
2022/03/26 09:03:01;;;;;;;1999.90;999.90;;;16.50;44.30;;;;;;4970365;28;20047;-79
2022/03/26 09:05:27;;;;;;;1999.90;999.90;;;16.60;44.10;;;;;;4970747;28;20038;-78
2022/03/26 09:07:53;;;;;;;1999.90;999.90;;;16.70;44.00;;;;;;4972937;28;20038;-78
2022/03/26 09:10:19;;;;;;;1999.90;999.90;;;16.70;44.00;;;;;;4971285;28;20388;-81
2022/03/26 09:12:46;;;;;;;1999.90;999.90;;;16.80;43.90;;;;;;4972702;28;20031;-78
2022/03/26 09:15:12;;;;;;;1999.90;999.90;;;16.90;43.80;;;;;;4969116;28;20049;-77
2022/03/26 09:17:39;;;;;;;1999.90;999.90;;;17.00;43.80;;;;;;4954054;28;20061;-77
2022/03/26 09:20:08;;;;;;;1999.90;999.90;;;17.00;43.70;;;;;;4970155;28;20391;-77
2022/03/26 09:22:34;;;;;;;1999.90;999.90;;;17.10;43.60;;;;;;4952867;28;20054;-87
2022/03/26 09:25:01;;;;;;;1999.90;999.90;;;17.20;43.50;;;;;;4971218;28;20050;-82
2022/03/26 09:27:27;;;;;;;1999.90;999.90;;;17.30;43.30;;;;;;4970747;28;20034;-83
2022/03/26 09:29:53;;;;;;;1999.90;999.90;;;17.50;43.30;;;;;;4969177;28;20038;-83
2022/03/26 09:32:19;;;;;;;1999.90;999.90;;;17.60;43.10;;;;;;4957224;28;20039;-83
2022/03/26 09:34:45;;;;;;;1999.90;999.90;;;17.70;42.90;;;;;;4969846;28;20031;-83
2022/03/26 09:37:13;;;;;;;1999.90;999.90;;;17.70;42.80;;;;;;4970055;28;20377;-83
2022/03/26 09:39:39;;;;;;;1999.90;999.90;;;17.80;42.60;;;;;;4972245;28;20034;-83
2022/03/26 09:42:05;;;;;;;1999.90;999.90;;;17.90;42.50;;;;;;4970874;28;20050;-83
2022/03/26 09:44:32;;;;;;;1999.90;999.90;;;18.00;42.50;;;;;;4970079;28;20026;-83
2022/03/26 09:46:58;;;;;;;1999.90;999.90;;;18.20;42.40;;;;;;4969534;28;20054;-83
2022/03/26 09:49:24;;;;;;;1999.90;999.90;;;18.30;42.20;;;;;;4970818;28;20030;-83
2022/03/26 09:51:54;;;;;;;1999.90;999.90;;;18.40;42.00;;;;;;4972963;28;20046;-83
2022/03/26 09:54:21;;;;;;;1999.90;999.90;;;18.50;42.00;;;;;;4955037;28;20034;-83
2022/03/26 09:56:47;;;;;;;1999.90;999.90;;;18.60;41.90;;;;;;4971717;28;20506;-83
2022/03/26 09:59:13;;;;;;;1999.90;999.90;;;18.70;41.80;;;;;;4968605;28;20038;-83
2022/03/26 10:01:39;;;;;;;1999.90;999.90;;;18.80;41.60;;;;;;4970063;28;20031;-83
2022/03/26 10:04:13;;;;;;;1999.90;999.90;;;19.00;41.30;;;;;;4953548;28;20054;-83
2022/03/26 10:06:49;;;;;;;1999.90;999.90;;;19.00;41.10;;;;;;4972000;28;20472;-83
2022/03/26 10:09:35;;;;;;;1999.90;999.90;;;19.10;41.00;;;;;;4969496;28;20038;-83
2022/03/26 10:12:04;;;;;;;1999.90;999.90;;;19.30;40.90;;;;;;4970289;28;20035;-83
2022/03/26 10:14:39;;;;;;;1999.90;999.90;;;19.40;40.70;;;;;;4969715;28;20361;-83
2022/03/26 10:17:34;;;;;;;1999.90;999.90;;;19.50;40.50;;;;;;4970974;28;20050;-83
2022/03/26 10:20:08;;;;;;;1999.90;999.90;;;19.60;40.10;;;;;;4960658;28;20377;-83
2022/03/26 10:22:41;;;;;;;1999.90;999.90;;;19.60;40.00;;;;;;4969616;28;20039;-83
2022/03/26 10:25:21;;;;;;;1999.90;999.90;;;19.60;39.60;;;;;;4971157;28;20045;-83
2022/03/26 10:27:56;;;;;;;1999.90;999.90;;;19.60;39.60;;;;;;4970869;28;20046;-83
2022/03/26 10:33:22;;;;;;;1999.90;999.90;;;19.70;39.20;;;;;;4969854;28;20043;-83
2022/03/26 10:35:59;;;;;;;1999.90;999.90;;;19.70;39.10;;;;;;4966681;28;20042;-83
2022/03/26 10:38:29;;;;;;;1999.90;999.90;;;19.70;38.80;;;;;;4953260;28;20038;-85
2022/03/26 10:40:59;;;;;;;1999.90;999.90;;;19.80;38.50;;;;;;4969732;28;20527;-85
2022/03/26 10:43:26;;;;;;;1999.90;999.90;;;19.80;38.30;;;;;;4952754;28;20043;-84
2022/03/26 10:45:53;;;;;;;1999.90;999.90;;;19.80;38.40;;;;;;4987174;28;20039;-85
2022/03/26 10:48:27;;;;;;;1999.90;999.90;;;20.10;38.30;;;;;;4963816;28;20022;-85
2022/03/26 10:51:07;;;;;;;1999.90;999.90;;;20.30;38.00;;;;;;4943136;28;20507;-85
2022/03/26 10:53:44;;;;;;;1999.90;999.90;;;20.50;37.60;;;;;;4972491;28;20031;-84
2022/03/26 10:56:11;;;;;;;1999.90;999.90;;;20.50;37.40;;;;;;4979368;28;20038;-83
2022/03/26 10:58:38;;;;;;;1999.90;999.90;;;20.50;37.40;;;;;;4973457;28;20388;-81
2022/03/26 11:01:04;;;;;;;1999.90;999.90;;;20.50;37.20;;;;;;4976651;28;20066;-90
2022/03/26 11:03:30;;;;;;;1999.90;999.90;;;20.60;37.10;;;;;;4958710;28;20076;-88
2022/03/26 11:05:57;;;;;;;1999.90;999.90;;;20.70;36.90;;;;;;4973880;28;20034;-84
2022/03/26 11:08:24;;;;;;;1999.90;999.90;;;20.80;36.60;;;;;;4975417;28;20034;-88
2022/03/26 11:10:50;;;;;;;1999.90;999.90;;;20.80;36.30;;;;;;4973418;28;20038;-88
2022/03/26 11:13:18;;;;;;;1999.90;999.90;;;20.80;36.00;;;;;;4974716;28;20030;-88
2022/03/26 11:15:49;;;;;;;1999.90;999.90;;;20.80;35.80;;;;;;4974651;28;20051;-88
2022/03/26 11:18:47;;;;;;;1999.90;999.90;;;20.80;35.60;;;;;;4956924;28;20423;-87
2022/03/26 11:21:22;;;;;;;1999.90;999.90;;;20.90;35.50;;;;;;4954898;28;20046;-82
2022/03/26 11:24:03;;;;;;;1999.90;999.90;;;20.90;35.10;;;;;;4971300;28;20046;-85
2022/03/26 11:26:44;;;;;;;1999.90;999.90;;;21.00;35.20;;;;;;4957777;28;20036;-86
2022/03/26 11:29:13;;;;;;;;;;;21.10;35.30;;;;;;4964685;28;20039;-75
2022/03/26 11:32:07;;;;;;;1999.90;999.90;;;21.20;35.30;;;;;;4973134;28;19914;-76
2022/03/26 11:34:36;;;;;;;1999.90;999.90;;;21.50;35.20;;;;;;4967175;28;20054;-76
2022/03/26 11:37:13;;;;;;;1999.90;999.90;;;21.60;34.90;;;;;;4973133;28;20384;-77
2022/03/26 11:39:46;;;;;;;1999.90;999.90;;;21.60;34.90;;;;;;4973764;28;20062;-76
2022/03/26 11:42:12;;;;;;;1999.90;999.90;;;21.70;35.00;;;;;;4970473;28;20026;-75
2022/03/26 11:44:45;;;;;;;1999.90;999.90;;;21.70;34.90;;;;;;4973155;28;20027;-76
2022/03/26 11:53:11;;;;;;;1999.90;999.90;;;21.70;34.80;;;;;;4971955;28;20042;-76
2022/03/26 11:55:42;;;;;;;1999.90;999.90;;;21.80;34.70;;;;;;4956299;28;20019;-76
2022/03/26 11:58:17;;;;;;;;;;;21.80;34.50;;;;;;4956562;28;20051;-77
2022/03/26 12:01:10;;;;;;;1999.90;999.90;;;21.90;34.50;;;;;;4987748;28;19914;-84
2022/03/26 12:03:43;;;;;;;1999.90;999.90;;;22.00;34.30;;;;;;4972150;28;20055;-83
2022/03/26 12:08:54;;;;;;;1999.90;999.90;;;21.90;34.20;;;;;;4973633;28;20471;-81
2022/03/26 12:11:24;;;;;;;1999.90;999.90;;;22.00;34.20;;;;;;4971950;28;20475;-82
2022/03/26 12:14:02;;;;;;;1999.90;999.90;;;22.10;34.20;;;;;;4971118;28;20386;-82